Time;durP1;ratioP1;P1;durP2;ratioP2;P2;SDS_P1;SDS_P2;PMS_P1;PMS_P2;Temp;Humidity;BMP_temperature;BMP_pressure;BME280_temperature;BME280_humidity;BME280_pressure;Samples;Min_cycle;Max_cycle;Signal;HPM_P1;HPM_P2
2023/09/15 00:00:43;;;;;;;6.20;4.28;;;11.60;99.90;;;;;;5026381;28;20040;-63
2023/09/15 00:03:08;;;;;;;9.75;4.10;;;11.60;99.90;;;;;;5088776;28;20051;-63
2023/09/15 00:05:34;;;;;;;7.88;4.50;;;11.60;99.90;;;;;;5044484;28;20482;-63
2023/09/15 00:08:04;;;;;;;7.45;4.15;;;11.60;99.90;;;;;;5055077;28;20069;-63
2023/09/15 00:10:34;;;;;;;11.02;4.60;;;11.60;99.90;;;;;;5040702;28;20048;-63
2023/09/15 00:13:00;;;;;;;10.48;4.53;;;11.50;99.90;;;;;;5037015;28;20044;-63
2023/09/15 00:15:27;;;;;;;8.85;4.50;;;11.50;99.90;;;;;;5060918;28;20036;-63
2023/09/15 00:17:54;;;;;;;6.95;4.30;;;11.50;99.90;;;;;;5075678;28;20072;-63
2023/09/15 00:20:21;;;;;;;5.20;4.32;;;11.50;99.90;;;;;;5048779;28;20044;-63
2023/09/15 00:22:49;;;;;;;8.35;4.80;;;11.50;99.90;;;;;;5028489;28;20041;-63
2023/09/15 00:25:21;;;;;;;8.02;4.15;;;11.40;99.90;;;;;;5091654;28;20072;-63
2023/09/15 00:27:50;;;;;;;7.68;4.15;;;11.40;99.90;;;;;;5046911;28;20506;-64
2023/09/15 00:30:17;;;;;;;7.78;4.15;;;11.40;99.90;;;;;;5085779;28;20044;-63
2023/09/15 00:32:45;;;;;;;8.20;4.32;;;11.40;99.90;;;;;;5056141;28;20363;-63
2023/09/15 00:35:12;;;;;;;8.82;4.78;;;11.40;99.90;;;;;;5056190;28;20036;-63
2023/09/15 00:37:37;;;;;;;8.23;4.38;;;11.30;99.90;;;;;;5041747;28;20053;-63
2023/09/15 00:40:06;;;;;;;7.47;4.53;;;11.30;99.90;;;;;;5040706;28;20488;-63
2023/09/15 00:42:32;;;;;;;5.97;4.60;;;11.20;99.90;;;;;;5090938;28;20053;-63
2023/09/15 00:45:04;;;;;;;8.05;4.80;;;11.20;99.90;;;;;;5037887;28;20040;-63
2023/09/15 00:47:34;;;;;;;9.03;4.63;;;11.10;99.90;;;;;;5027722;28;20032;-64
2023/09/15 00:50:01;;;;;;;8.50;4.90;;;11.10;99.90;;;;;;5055279;28;20036;-63
2023/09/15 00:52:27;;;;;;;7.32;4.68;;;11.00;99.90;;;;;;5046413;28;20036;-63
2023/09/15 00:54:54;;;;;;;9.27;5.05;;;10.90;99.90;;;;;;5089773;28;20375;-63
2023/09/15 00:57:20;;;;;;;8.50;4.70;;;10.90;99.90;;;;;;5027027;28;20219;-63
2023/09/15 00:59:47;;;;;;;7.25;4.70;;;10.80;99.90;;;;;;5057816;28;20541;-63
2023/09/15 01:02:13;;;;;;;7.28;5.28;;;10.80;99.90;;;;;;5042060;28;20466;-63
2023/09/15 01:04:40;;;;;;;8.18;5.10;;;10.70;99.90;;;;;;5054237;28;20041;-63
2023/09/15 01:07:07;;;;;;;7.88;4.78;;;10.70;99.90;;;;;;5094570;28;20045;-63
2023/09/15 01:09:33;;;;;;;10.32;5.18;;;10.70;99.90;;;;;;5039928;28;20044;-63
2023/09/15 01:11:59;;;;;;;10.35;4.50;;;10.70;99.90;;;;;;5042580;28;20044;-64
2023/09/15 01:14:25;;;;;;;8.55;4.90;;;10.70;99.90;;;;;;5040303;28;20114;-63
2023/09/15 01:17:11;;;;;;;8.52;4.60;;;10.80;99.90;;;;;;5029054;28;20049;-63
2023/09/15 01:20:06;;;;;;;10.40;5.10;;;10.70;99.90;;;;;;5062715;28;20047;-63
2023/09/15 01:22:58;;;;;;;11.57;5.55;;;10.80;99.90;;;;;;5062765;28;20134;-63
2023/09/15 01:25:31;;;;;;;11.18;5.28;;;10.70;99.90;;;;;;5061988;28;20134;-63
2023/09/15 01:28:06;;;;;;;8.98;5.13;;;10.70;99.90;;;;;;5060208;28;20044;-64
2023/09/15 01:30:32;;;;;;;10.77;5.38;;;10.60;99.90;;;;;;5060209;28;20087;-63
2023/09/15 01:33:01;;;;;;;10.13;5.10;;;10.60;99.90;;;;;;5062085;28;20045;-63
2023/09/15 01:35:26;;;;;;;9.10;5.20;;;10.50;99.90;;;;;;5061374;28;20066;-63
2023/09/15 01:37:52;;;;;;;9.13;5.30;;;10.50;99.90;;;;;;5040772;28;20055;-63
2023/09/15 01:40:18;;;;;;;10.88;5.22;;;10.50;99.90;;;;;;5032968;28;20048;-64
2023/09/15 01:42:50;;;;;;;7.00;4.80;;;10.60;99.90;;;;;;5020534;28;20088;-63
2023/09/15 01:45:16;;;;;;;9.75;4.68;;;10.60;99.90;;;;;;5062594;28;20044;-64
2023/09/15 01:47:42;;;;;;;6.45;4.55;;;10.60;99.90;;;;;;5025081;28;20052;-63
2023/09/15 01:50:09;;;;;;;8.48;4.88;;;10.60;99.90;;;;;;5047865;28;20040;-63
2023/09/15 01:52:35;;;;;;;11.07;5.03;;;10.60;99.90;;;;;;5038309;28;20428;-63
2023/09/15 01:55:03;;;;;;;7.22;4.68;;;10.60;99.90;;;;;;5093008;28;20083;-63
2023/09/15 01:57:29;;;;;;;6.68;4.50;;;10.60;99.90;;;;;;5057796;28;20043;-63
2023/09/15 01:59:58;;;;;;;7.45;4.65;;;10.60;99.90;;;;;;5055644;28;20044;-63
2023/09/15 02:02:24;;;;;;;9.85;5.10;;;10.60;99.90;;;;;;5071309;28;20478;-63
2023/09/15 02:04:49;;;;;;;7.82;4.63;;;10.60;99.90;;;;;;5038248;28;20044;-63
2023/09/15 02:07:15;;;;;;;8.25;4.97;;;10.50;99.90;;;;;;5026605;28;20448;-63
2023/09/15 02:09:41;;;;;;;8.95;5.05;;;10.50;99.90;;;;;;5040218;28;20043;-63
2023/09/15 02:12:07;;;;;;;10.75;5.28;;;10.50;99.90;;;;;;5062010;28;20175;-63
2023/09/15 02:14:34;;;;;;;9.65;5.38;;;10.40;99.90;;;;;;5042712;28;20106;-65
2023/09/15 02:17:00;;;;;;;6.93;5.15;;;10.40;99.90;;;;;;5024126;28;20041;-65
2023/09/15 02:19:26;;;;;;;8.25;5.25;;;10.30;99.90;;;;;;5059586;28;20055;-64
2023/09/15 02:21:52;;;;;;;7.97;5.30;;;10.30;99.90;;;;;;5041909;28;20594;-63
2023/09/15 02:24:18;;;;;;;10.50;5.32;;;10.30;99.90;;;;;;5041034;28;20135;-63
2023/09/15 02:26:44;;;;;;;9.35;5.13;;;10.30;99.90;;;;;;5040879;28;20041;-63
2023/09/15 02:29:09;;;;;;;9.20;5.13;;;10.30;99.90;;;;;;5045540;28;20032;-63
2023/09/15 02:31:35;;;;;;;8.45;5.65;;;10.30;99.90;;;;;;5044117;28;20041;-63
2023/09/15 02:34:01;;;;;;;10.27;5.43;;;10.30;99.90;;;;;;5042052;28;20122;-63
2023/09/15 02:36:27;;;;;;;10.48;5.60;;;10.30;99.90;;;;;;5047253;28;20032;-63
2023/09/15 02:38:56;;;;;;;8.77;5.57;;;10.20;99.90;;;;;;5024860;28;20127;-63
2023/09/15 02:41:22;;;;;;;10.95;5.75;;;10.20;99.90;;;;;;5061392;28;20058;-64
2023/09/15 02:43:48;;;;;;;13.93;6.82;;;10.20;99.90;;;;;;5039846;28;20068;-63
2023/09/15 02:46:14;;;;;;;8.40;5.80;;;10.20;99.90;;;;;;5038924;28;20094;-64
2023/09/15 02:48:43;;;;;;;10.23;6.03;;;10.20;99.90;;;;;;5056820;28;20079;-63
2023/09/15 02:51:08;;;;;;;9.50;5.72;;;10.10;99.90;;;;;;5054040;28;20043;-64
2023/09/15 02:53:34;;;;;;;12.50;6.18;;;10.10;99.90;;;;;;5044394;28;20040;-63
2023/09/15 02:56:04;;;;;;;9.30;6.00;;;10.00;99.90;;;;;;5025789;28;20061;-64
2023/09/15 02:58:31;;;;;;;9.00;5.82;;;10.50;99.90;;;;;;5059246;28;20052;-63
2023/09/15 03:00:57;;;;;;;8.32;5.53;;;10.00;99.90;;;;;;5060315;28;20037;-64
2023/09/15 03:03:23;;;;;;;8.45;6.07;;;10.00;99.90;;;;;;5058869;28;20190;-63
2023/09/15 03:05:50;;;;;;;9.43;6.18;;;10.00;99.90;;;;;;5076364;28;20049;-64
2023/09/15 03:08:16;;;;;;;10.48;6.55;;;10.00;99.90;;;;;;5047507;28;20094;-64
2023/09/15 03:10:42;;;;;;;9.15;6.05;;;10.00;99.90;;;;;;5044338;28;20084;-64
2023/09/15 03:13:08;;;;;;;9.90;6.35;;;10.00;99.90;;;;;;5058405;28;20072;-63
2023/09/15 03:15:34;;;;;;;11.65;6.53;;;10.00;99.90;;;;;;5052896;28;20041;-64
2023/09/15 03:18:00;;;;;;;12.23;5.93;;;10.00;99.90;;;;;;5062360;28;20456;-63
2023/09/15 03:20:26;;;;;;;11.07;6.28;;;9.90;99.90;;;;;;5058286;28;20049;-64
2023/09/15 03:22:52;;;;;;;8.63;5.93;;;9.90;99.90;;;;;;5046930;28;20037;-64
2023/09/15 03:25:18;;;;;;;13.75;6.65;;;9.90;99.90;;;;;;5055608;28;20098;-64
2023/09/15 03:27:44;;;;;;;10.65;6.32;;;9.90;99.90;;;;;;5045606;28;20485;-63
2023/09/15 03:30:11;;;;;;;8.95;6.75;;;9.80;99.90;;;;;;5084247;28;20067;-64
2023/09/15 03:32:39;;;;;;;9.23;6.78;;;9.80;99.90;;;;;;5071172;28;20371;-64
2023/09/15 03:35:07;;;;;;;9.50;6.40;;;9.80;99.90;;;;;;5041223;28;20665;-63
2023/09/15 03:37:32;;;;;;;9.93;6.97;;;9.70;99.90;;;;;;5028871;28;20449;-63
2023/09/15 03:39:59;;;;;;;11.25;7.72;;;9.70;99.90;;;;;;5043063;28;20072;-63
2023/09/15 03:42:25;;;;;;;9.65;6.43;;;9.70;99.90;;;;;;5061342;28;20061;-63
2023/09/15 03:44:50;;;;;;;10.88;6.93;;;9.60;99.90;;;;;;5057634;28;20045;-64
2023/09/15 03:47:16;;;;;;;11.13;6.75;;;9.60;99.90;;;;;;5092296;28;20053;-64
2023/09/15 03:49:42;;;;;;;9.55;6.80;;;9.50;99.90;;;;;;5056276;28;20390;-64
2023/09/15 03:52:08;;;;;;;8.73;7.18;;;9.50;99.90;;;;;;5043658;28;20516;-64
2023/09/15 03:54:34;;;;;;;9.57;7.10;;;9.50;99.90;;;;;;5040553;28;20053;-64
2023/09/15 03:56:59;;;;;;;9.85;7.15;;;9.50;99.90;;;;;;5060106;28;20432;-63
2023/09/15 03:59:25;;;;;;;10.30;7.32;;;9.40;99.90;;;;;;5057801;28;20060;-63
2023/09/15 04:01:51;;;;;;;11.38;7.13;;;9.40;99.90;;;;;;5021334;28;20536;-63
2023/09/15 04:04:16;;;;;;;9.75;7.15;;;9.50;99.90;;;;;;5037162;28;20931;-63
2023/09/15 04:06:43;;;;;;;9.75;7.47;;;9.40;99.90;;;;;;5056150;28;20493;-63
2023/09/15 04:09:15;;;;;;;11.32;7.38;;;9.40;99.90;;;;;;5055759;28;20079;-63
2023/09/15 04:11:41;;;;;;;13.40;8.60;;;9.40;99.90;;;;;;5084516;28;20406;-63
2023/09/15 04:14:07;;;;;;;13.35;8.88;;;9.40;99.90;;;;;;5044081;28;20036;-64
2023/09/15 04:16:35;;;;;;;13.23;8.38;;;9.30;99.90;;;;;;5042113;28;20040;-63
2023/09/15 04:19:01;;;;;;;14.70;8.77;;;9.30;99.90;;;;;;5030403;28;20056;-63
2023/09/15 04:21:27;;;;;;;15.75;8.75;;;9.20;99.90;;;;;;5053914;28;20061;-63
2023/09/15 04:23:53;;;;;;;12.23;8.77;;;9.20;99.90;;;;;;5034399;28;20453;-64
2023/09/15 04:26:19;;;;;;;11.95;8.75;;;9.20;99.90;;;;;;5038495;28;20131;-63
2023/09/15 04:28:45;;;;;;;12.07;8.73;;;9.20;99.90;;;;;;5053582;28;20517;-63
2023/09/15 04:31:11;;;;;;;10.70;7.95;;;9.20;99.90;;;;;;5056806;28;20036;-63
2023/09/15 04:33:36;;;;;;;10.77;7.78;;;9.20;99.90;;;;;;5066508;28;20074;-64
2023/09/15 04:36:03;;;;;;;11.65;8.70;;;9.20;99.90;;;;;;5043377;28;20082;-63
2023/09/15 04:38:30;;;;;;;10.38;7.65;;;9.20;99.90;;;;;;5032928;28;20043;-63
2023/09/15 04:40:55;;;;;;;11.77;8.20;;;9.20;99.90;;;;;;5051675;28;20045;-63
2023/09/15 04:43:21;;;;;;;11.25;8.52;;;9.20;99.90;;;;;;5020783;28;20056;-64
2023/09/15 04:45:50;;;;;;;10.38;8.30;;;9.20;99.90;;;;;;5066897;28;20056;-63
2023/09/15 04:48:16;;;;;;;12.50;8.07;;;9.20;99.90;;;;;;5052095;28;20036;-63
2023/09/15 04:50:42;;;;;;;12.82;8.15;;;9.20;99.90;;;;;;5047322;28;20390;-64
2023/09/15 04:53:07;;;;;;;12.23;8.82;;;9.20;99.90;;;;;;5058746;28;20418;-64
2023/09/15 04:55:34;;;;;;;12.95;8.73;;;9.20;99.90;;;;;;5040710;28;20074;-64
2023/09/15 04:57:59;;;;;;;16.05;9.70;;;9.20;99.90;;;;;;5020314;28;20055;-63
2023/09/15 05:00:26;;;;;;;11.98;8.27;;;9.20;99.90;;;;;;5040881;28;20049;-64
2023/09/15 05:02:53;;;;;;;11.43;8.05;;;9.10;99.90;;;;;;5057003;28;20094;-64
2023/09/15 05:05:19;;;;;;;13.13;8.13;;;9.10;99.90;;;;;;5066949;28;20037;-64
2023/09/15 05:07:45;;;;;;;11.05;7.88;;;9.10;99.90;;;;;;5035043;28;20042;-64
2023/09/15 05:10:11;;;;;;;9.30;8.10;;;9.10;99.90;;;;;;5082836;28;20041;-63
2023/09/15 05:12:37;;;;;;;11.70;7.82;;;9.10;99.90;;;;;;5059729;28;20060;-64
2023/09/15 05:15:03;;;;;;;14.32;8.27;;;9.10;99.90;;;;;;5060506;28;20048;-63
2023/09/15 05:17:29;;;;;;;9.50;8.05;;;9.10;99.90;;;;;;5040027;28;20033;-64
2023/09/15 05:19:56;;;;;;;11.50;8.60;;;9.10;99.90;;;;;;5055128;28;20047;-64
2023/09/15 05:22:22;;;;;;;13.23;8.65;;;9.10;99.90;;;;;;5052439;28;20073;-64
2023/09/15 05:24:48;;;;;;;15.05;9.18;;;9.00;99.90;;;;;;5051872;28;20528;-64
2023/09/15 05:27:14;;;;;;;10.25;8.18;;;9.10;99.90;;;;;;5030217;28;20094;-63
2023/09/15 05:29:39;;;;;;;13.02;8.40;;;9.00;99.90;;;;;;5075441;28;20119;-63
2023/09/15 05:32:05;;;;;;;11.15;8.90;;;9.00;99.90;;;;;;5025126;28;20068;-64
2023/09/15 05:34:31;;;;;;;15.85;8.85;;;9.10;99.90;;;;;;5093077;28;20516;-64
2023/09/15 05:36:57;;;;;;;12.48;8.65;;;9.10;99.90;;;;;;5055038;28;20134;-63
2023/09/15 05:39:23;;;;;;;13.32;9.20;;;9.10;99.90;;;;;;5053403;28;20033;-64
2023/09/15 05:41:49;;;;;;;14.52;9.25;;;9.10;99.90;;;;;;5060350;28;20049;-63
2023/09/15 05:44:16;;;;;;;12.90;8.73;;;9.20;99.90;;;;;;5055484;28;20085;-64
2023/09/15 05:46:43;;;;;;;13.10;9.63;;;9.10;99.90;;;;;;5073349;28;20460;-64
2023/09/15 05:49:11;;;;;;;13.57;8.30;;;9.20;99.90;;;;;;5036916;28;20037;-64
2023/09/15 05:51:37;;;;;;;13.70;9.05;;;9.20;99.90;;;;;;5016183;28;20119;-64
2023/09/15 05:54:03;;;;;;;11.88;9.88;;;9.20;99.90;;;;;;5041266;28;20123;-63
2023/09/15 05:56:29;;;;;;;11.10;8.77;;;9.20;99.90;;;;;;5072357;28;20084;-63
2023/09/15 05:58:55;;;;;;;12.10;9.05;;;9.20;99.90;;;;;;5045150;28;20497;-63
2023/09/15 06:01:21;;;;;;;15.90;9.70;;;9.20;99.90;;;;;;5039341;28;20373;-63
2023/09/15 06:03:48;;;;;;;14.07;9.68;;;9.30;99.90;;;;;;5024987;28;20041;-64
2023/09/15 06:06:16;;;;;;;12.68;8.60;;;9.30;99.90;;;;;;5045366;28;20124;-64
2023/09/15 06:08:42;;;;;;;13.80;9.60;;;9.30;99.90;;;;;;5039666;28;20033;-64
2023/09/15 06:11:07;;;;;;;13.45;9.43;;;9.40;99.90;;;;;;5022546;28;20047;-63
2023/09/15 06:13:34;;;;;;;14.82;8.90;;;9.40;99.90;;;;;;5022662;28;20501;-64
2023/09/15 06:16:00;;;;;;;9.88;8.07;;;9.50;99.90;;;;;;5057906;28;20053;-63
2023/09/15 06:18:25;;;;;;;12.32;9.57;;;9.50;99.90;;;;;;5064452;28;20051;-63
2023/09/15 06:20:56;;;;;;;13.10;9.27;;;9.50;99.90;;;;;;5062769;28;20486;-63
2023/09/15 06:23:22;;;;;;;12.20;9.23;;;9.60;99.90;;;;;;5029237;28;20378;-64
2023/09/15 06:25:48;;;;;;;12.07;9.50;;;9.60;99.90;;;;;;5056855;28;20050;-63
2023/09/15 06:28:14;;;;;;;11.27;9.63;;;9.60;99.90;;;;;;5061352;28;20040;-64
2023/09/15 06:30:40;;;;;;;15.80;9.43;;;9.70;99.90;;;;;;5054132;28;20045;-64
2023/09/15 06:33:06;;;;;;;12.85;9.55;;;9.70;99.90;;;;;;5031363;28;20466;-64
2023/09/15 06:35:32;;;;;;;12.63;10.18;;;9.80;99.90;;;;;;5041362;28;20047;-64
2023/09/15 06:37:57;;;;;;;14.85;9.95;;;9.80;99.90;;;;;;5028736;28;20627;-64
2023/09/15 06:40:23;;;;;;;15.73;10.50;;;9.80;99.90;;;;;;5011295;28;20083;-64
2023/09/15 06:42:49;;;;;;;12.25;9.32;;;9.90;99.90;;;;;;5046968;28;20068;-64
2023/09/15 06:45:15;;;;;;;16.48;9.18;;;9.90;99.90;;;;;;5030095;28;20056;-64
2023/09/15 06:47:40;;;;;;;12.90;9.82;;;10.00;99.90;;;;;;5048517;28;20416;-63
2023/09/15 06:50:06;;;;;;;12.15;9.52;;;10.10;99.90;;;;;;5027082;28;20477;-63
2023/09/15 06:52:32;;;;;;;13.50;9.43;;;10.10;99.90;;;;;;5030321;28;20039;-64
2023/09/15 06:54:58;;;;;;;14.55;9.48;;;10.20;99.90;;;;;;5026020;28;20036;-64
2023/09/15 06:57:24;;;;;;;13.10;9.75;;;10.30;99.90;;;;;;5018896;28;20413;-64
2023/09/15 06:59:51;;;;;;;12.50;9.25;;;10.40;99.90;;;;;;5034466;28;20043;-64
2023/09/15 07:02:17;;;;;;;11.85;9.25;;;10.40;99.90;;;;;;5021771;28;20037;-64
2023/09/15 07:04:43;;;;;;;13.25;9.13;;;10.50;99.90;;;;;;5035512;28;20051;-64
2023/09/15 07:07:10;;;;;;;12.15;9.38;;;10.60;99.90;;;;;;5055513;28;20090;-64
2023/09/15 07:09:35;;;;;;;13.18;9.70;;;10.60;99.90;;;;;;5035815;28;20040;-64
2023/09/15 07:12:01;;;;;;;13.23;9.63;;;10.70;99.90;;;;;;5041194;28;20111;-64
2023/09/15 07:14:27;;;;;;;10.90;9.77;;;10.70;99.90;;;;;;5037609;28;20162;-64
2023/09/15 07:16:53;;;;;;;11.32;9.90;;;10.80;99.90;;;;;;5036221;28;20063;-64
2023/09/15 07:19:19;;;;;;;13.15;9.57;;;10.90;99.90;;;;;;5034926;28;20044;-64
2023/09/15 07:21:44;;;;;;;13.70;9.27;;;11.00;99.90;;;;;;5034898;28;20068;-64
2023/09/15 07:24:11;;;;;;;10.23;9.18;;;11.10;99.90;;;;;;5034316;28;20053;-64
2023/09/15 07:26:37;;;;;;;16.60;9.52;;;11.20;99.90;;;;;;5054294;28;20052;-64
2023/09/15 07:29:06;;;;;;;14.52;9.27;;;11.30;99.90;;;;;;5053226;28;20124;-64
2023/09/15 07:31:35;;;;;;;10.70;8.85;;;11.40;99.90;;;;;;5050982;28;20066;-64
2023/09/15 07:34:01;;;;;;;10.10;9.07;;;11.60;99.90;;;;;;5049802;28;20044;-64
2023/09/15 07:36:27;;;;;;;12.52;9.02;;;11.90;99.90;;;;;;5036028;28;20043;-64
2023/09/15 07:38:53;;;;;;;11.40;9.23;;;12.10;99.90;;;;;;5035636;28;20052;-64
2023/09/15 07:41:19;;;;;;;10.80;8.35;;;12.40;99.90;;;;;;5051098;28;20045;-64
2023/09/15 07:43:45;;;;;;;12.35;9.55;;;12.60;99.90;;;;;;5050836;28;20110;-64
2023/09/15 07:46:14;;;;;;;13.25;9.13;;;12.90;99.90;;;;;;5033481;28;20049;-64
2023/09/15 07:48:40;;;;;;;10.90;9.13;;;13.10;99.90;;;;;;5053518;28;20370;-64
2023/09/15 07:51:06;;;;;;;11.68;7.93;;;13.30;99.90;;;;;;5052751;28;20036;-64
2023/09/15 07:53:32;;;;;;;13.10;8.50;;;13.50;99.90;;;;;;5058435;28;20076;-64
2023/09/15 07:55:58;;;;;;;13.38;8.07;;;13.70;99.90;;;;;;5053472;28;20079;-62
2023/09/15 07:58:24;;;;;;;11.75;7.82;;;13.80;99.90;;;;;;5038997;28;20051;-64
2023/09/15 08:00:50;;;;;;;9.82;8.45;;;14.10;99.90;;;;;;5017534;28;20049;-64
2023/09/15 08:03:16;;;;;;;10.93;7.90;;;14.20;99.90;;;;;;5034168;28;20068;-64
2023/09/15 08:05:42;;;;;;;12.80;7.88;;;14.40;99.90;;;;;;5035323;28;20085;-64
2023/09/15 08:08:08;;;;;;;12.55;7.80;;;14.70;99.90;;;;;;5030743;28;20474;-64
2023/09/15 08:10:34;;;;;;;12.60;7.22;;;14.80;99.90;;;;;;5017828;28;20044;-64
2023/09/15 08:12:59;;;;;;;10.85;7.32;;;15.10;99.90;;;;;;5047880;28;20040;-64
2023/09/15 08:15:25;;;;;;;11.80;6.97;;;15.30;99.90;;;;;;5021907;28;20119;-64
2023/09/15 08:17:52;;;;;;;11.15;6.80;;;15.40;99.90;;;;;;5032070;28;20102;-64
2023/09/15 08:20:18;;;;;;;10.20;6.55;;;15.70;99.90;;;;;;5047933;28;20044;-64
2023/09/15 08:22:44;;;;;;;8.35;6.20;;;15.80;99.90;;;;;;5057944;28;20059;-64
2023/09/15 08:25:14;;;;;;;11.43;7.22;;;15.90;99.90;;;;;;5033513;28;20107;-64
2023/09/15 08:27:40;;;;;;;7.97;6.05;;;16.00;99.90;;;;;;5039943;28;20056;-64
2023/09/15 08:30:10;;;;;;;9.07;6.47;;;16.20;99.90;;;;;;5062501;28;20036;-64
2023/09/15 08:32:36;;;;;;;7.63;5.43;;;16.50;99.90;;;;;;5048235;28;20111;-64
2023/09/15 08:35:03;;;;;;;9.63;6.45;;;16.60;99.90;;;;;;5061182;28;20481;-65
2023/09/15 08:37:30;;;;;;;9.93;5.60;;;16.80;99.90;;;;;;5034037;28;20434;-64
2023/09/15 08:39:55;;;;;;;8.38;5.43;;;16.90;99.90;;;;;;5017406;28;20461;-65
2023/09/15 08:42:26;;;;;;;10.02;5.47;;;16.90;99.90;;;;;;5027908;28;20049;-64
2023/09/15 08:44:53;;;;;;;8.63;6.35;;;16.90;99.90;;;;;;5050458;28;20049;-65
2023/09/15 08:47:20;;;;;;;8.82;5.32;;;17.00;99.90;;;;;;5061315;28;20406;-65
2023/09/15 08:49:47;;;;;;;7.90;5.43;;;17.10;99.90;;;;;;5033622;28;20094;-64
2023/09/15 08:52:18;;;;;;;8.25;5.15;;;17.10;99.90;;;;;;5022443;28;20399;-65
2023/09/15 08:54:45;;;;;;;7.90;4.88;;;17.20;99.90;;;;;;5079408;28;20360;-65
2023/09/15 08:57:11;;;;;;;11.75;4.65;;;17.20;99.90;;;;;;5019310;28;20041;-65
2023/09/15 08:59:38;;;;;;;15.68;5.15;;;17.30;99.90;;;;;;5029623;28;20052;-65
2023/09/15 09:02:04;;;;;;;10.80;4.80;;;17.40;99.90;;;;;;5056383;28;20040;-65
2023/09/15 09:04:30;;;;;;;7.22;5.10;;;17.50;99.90;;;;;;5055184;28;20402;-65
2023/09/15 09:06:59;;;;;;;5.85;4.57;;;17.60;99.90;;;;;;5041070;28;20083;-65
2023/09/15 09:09:25;;;;;;;8.90;4.47;;;17.70;99.90;;;;;;5050477;28;20091;-64
2023/09/15 09:11:51;;;;;;;10.05;4.50;;;17.80;99.90;;;;;;5049525;28;20414;-64
2023/09/15 09:14:17;;;;;;;6.82;4.50;;;17.90;99.90;;;;;;5016888;28;20041;-65
2023/09/15 09:16:43;;;;;;;7.45;4.50;;;18.00;99.90;;;;;;5033697;28;20390;-65
2023/09/15 09:19:10;;;;;;;7.85;4.55;;;18.10;99.90;;;;;;5028514;28;20386;-64
2023/09/15 09:21:37;;;;;;;8.40;4.07;;;18.20;99.90;;;;;;5045041;28;20045;-65
2023/09/15 09:24:03;;;;;;;7.60;3.60;;;18.20;99.90;;;;;;5033237;28;20183;-64
2023/09/15 09:26:29;;;;;;;7.25;4.28;;;18.30;99.90;;;;;;5036520;28;20425;-65
2023/09/15 09:28:59;;;;;;;10.43;3.90;;;18.40;99.90;;;;;;5037138;28;20033;-65
2023/09/15 09:31:26;;;;;;;10.25;4.38;;;18.60;99.90;;;;;;5053701;28;20053;-65
2023/09/15 09:33:53;;;;;;;6.05;3.92;;;18.60;99.90;;;;;;5037192;28;20057;-65
2023/09/15 09:36:20;;;;;;;8.85;4.50;;;18.70;99.90;;;;;;5053876;28;20041;-64
2023/09/15 09:38:48;;;;;;;5.80;3.95;;;18.80;99.90;;;;;;5063583;28;20041;-65
2023/09/15 09:41:17;;;;;;;7.32;4.53;;;19.00;99.90;;;;;;5048510;28;20280;-65
2023/09/15 09:43:47;;;;;;;6.65;3.90;;;19.10;99.90;;;;;;5051764;28;20049;-65
2023/09/15 09:46:15;;;;;;;7.70;4.20;;;19.20;99.90;;;;;;5037440;28;20560;-65
2023/09/15 09:48:43;;;;;;;6.82;4.10;;;19.20;99.90;;;;;;5053386;28;20037;-65
2023/09/15 09:51:08;;;;;;;6.53;4.05;;;19.40;99.90;;;;;;5086989;28;20046;-64
2023/09/15 09:53:35;;;;;;;7.68;4.03;;;19.50;99.90;;;;;;5053644;28;20585;-65
2023/09/15 09:56:05;;;;;;;6.28;3.88;;;19.70;99.90;;;;;;5050587;28;20048;-65
2023/09/15 09:58:40;;;;;;;6.95;3.65;;;19.90;99.90;;;;;;5048863;28;20398;-65
2023/09/15 10:01:06;;;;;;;5.78;3.50;;;20.00;99.90;;;;;;5052920;28;20045;-64
2023/09/15 10:03:33;;;;;;;5.93;3.63;;;20.10;99.90;;;;;;5037768;28;20045;-64
2023/09/15 10:05:59;;;;;;;7.25;3.58;;;20.10;99.90;;;;;;5053278;28;20049;-64
2023/09/15 10:08:26;;;;;;;6.15;3.25;;;20.10;99.90;;;;;;5036106;28;20044;-65
2023/09/15 10:10:52;;;;;;;9.18;3.85;;;20.20;99.90;;;;;;5019973;28;20041;-65
2023/09/15 10:13:18;;;;;;;5.75;3.08;;;20.30;99.90;;;;;;5052460;28;20513;-65
2023/09/15 10:15:45;;;;;;;6.45;3.00;;;20.40;99.90;;;;;;5057388;28;20040;-64
2023/09/15 10:18:14;;;;;;;7.28;3.72;;;20.40;99.90;;;;;;5036068;28;20083;-65
2023/09/15 10:20:42;;;;;;;7.53;3.67;;;20.30;99.90;;;;;;5086325;28;20074;-65
2023/09/15 10:23:08;;;;;;;4.82;3.05;;;20.40;99.90;;;;;;5041256;28;20501;-64
2023/09/15 10:25:42;;;;;;;5.82;3.40;;;20.40;99.90;;;;;;5061008;28;20037;-65
2023/09/15 10:28:09;;;;;;;6.53;3.00;;;20.60;99.90;;;;;;5019259;28;20604;-64
2023/09/15 10:30:39;;;;;;;5.03;2.97;;;20.70;99.90;;;;;;5042521;28;20029;-65
2023/09/15 10:33:09;;;;;;;6.93;3.05;;;20.70;99.90;;;;;;5050219;28;20045;-65
2023/09/15 10:35:39;;;;;;;4.40;3.08;;;20.70;99.90;;;;;;5039069;28;20048;-65
2023/09/15 10:38:05;;;;;;;5.35;3.10;;;20.80;99.90;;;;;;5084386;28;20040;-64
2023/09/15 10:40:46;;;;;;;6.05;3.10;;;20.80;99.90;;;;;;5040899;28;20041;-64
2023/09/15 10:43:13;;;;;;;6.65;3.25;;;21.00;99.90;;;;;;5042744;28;20049;-64
2023/09/15 10:45:39;;;;;;;5.70;2.83;;;21.00;99.90;;;;;;5056615;28;20106;-64
2023/09/15 10:48:05;;;;;;;6.43;3.38;;;21.20;99.90;;;;;;5059651;28;20076;-64
2023/09/15 10:50:36;;;;;;;8.10;3.15;;;21.30;99.90;;;;;;5063771;28;20064;-63
2023/09/15 10:53:08;;;;;;;6.28;3.35;;;21.30;99.90;;;;;;5051886;28;20036;-64
2023/09/15 10:55:33;;;;;;;5.43;3.20;;;21.40;99.90;;;;;;5042310;28;20057;-64
2023/09/15 10:58:01;;;;;;;5.95;3.00;;;21.40;99.90;;;;;;5055943;28;20044;-64
2023/09/15 11:00:27;;;;;;;8.55;3.15;;;21.50;99.90;;;;;;5022128;28;20418;-64
2023/09/15 11:02:53;;;;;;;5.93;3.25;;;21.40;99.90;;;;;;5046991;28;20043;-64
2023/09/15 11:05:19;;;;;;;11.07;3.78;;;21.60;99.90;;;;;;5041323;28;20087;-64
2023/09/15 11:07:47;;;;;;;7.40;3.72;;;21.70;99.90;;;;;;5076739;28;20045;-63
2023/09/15 11:10:13;;;;;;;6.30;3.25;;;21.90;99.90;;;;;;5023719;28;20037;-63
2023/09/15 11:12:39;;;;;;;5.43;3.13;;;22.00;99.90;;;;;;5045302;28;20244;-65
2023/09/15 11:15:07;;;;;;;8.55;3.53;;;22.10;99.90;;;;;;5030747;28;20090;-65
2023/09/15 11:17:33;;;;;;;10.00;3.58;;;22.20;99.90;;;;;;5042149;28;20039;-65
2023/09/15 11:20:04;;;;;;;9.05;3.03;;;22.30;99.90;;;;;;5035436;28;20037;-65
2023/09/15 11:22:31;;;;;;;7.97;3.28;;;22.30;99.90;;;;;;5055654;28;20044;-65
2023/09/15 11:24:56;;;;;;;5.22;3.17;;;22.50;99.90;;;;;;5054500;28;20043;-65
2023/09/15 11:27:22;;;;;;;4.38;2.85;;;22.40;99.90;;;;;;5021137;28;21227;-63
2023/09/15 11:29:48;;;;;;;5.72;3.15;;;22.40;99.90;;;;;;5040577;28;20044;-62
2023/09/15 11:32:14;;;;;;;5.28;2.83;;;22.30;99.80;;;;;;5050116;28;20043;-64
2023/09/15 11:34:40;;;;;;;7.22;3.17;;;22.30;99.40;;;;;;5047145;28;20037;-63
2023/09/15 11:37:06;;;;;;;5.43;3.40;;;22.40;99.20;;;;;;5032651;28;20051;-63
2023/09/15 11:39:32;;;;;;;6.18;3.08;;;22.40;99.90;;;;;;5057724;28;20044;-63
2023/09/15 11:41:58;;;;;;;6.50;3.15;;;22.40;99.60;;;;;;5043320;28;20093;-66
2023/09/15 11:44:29;;;;;;;5.35;3.00;;;22.40;99.80;;;;;;5033844;28;20057;-65
2023/09/15 11:46:58;;;;;;;4.93;2.92;;;22.50;98.40;;;;;;5034004;28;20049;-65
2023/09/15 11:49:25;;;;;;;5.20;3.10;;;22.50;99.70;;;;;;5044387;28;20036;-65
2023/09/15 11:51:56;;;;;;;6.65;3.22;;;22.60;99.30;;;;;;5045723;28;21873;-65
2023/09/15 11:54:24;;;;;;;7.45;3.50;;;22.60;99.60;;;;;;5046409;28;20041;-65
2023/09/15 11:56:50;;;;;;;6.45;3.17;;;22.70;99.30;;;;;;5078804;28;20405;-65
2023/09/15 11:59:16;;;;;;;9.05;3.40;;;22.80;99.70;;;;;;5044631;28;20049;-65
2023/09/15 12:01:42;;;;;;;8.18;3.38;;;22.90;99.70;;;;;;5050418;28;20506;-65
2023/09/15 12:04:09;;;;;;;6.18;3.20;;;23.00;99.90;;;;;;5062733;28;20044;-64
2023/09/15 12:06:35;;;;;;;8.43;3.50;;;22.90;98.70;;;;;;5038094;28;20048;-64
2023/09/15 12:09:02;;;;;;;6.70;3.08;;;22.80;98.90;;;;;;5034210;28;20052;-64
2023/09/15 12:11:29;;;;;;;5.63;3.03;;;22.60;98.90;;;;;;5029721;28;20064;-64
2023/09/15 12:13:56;;;;;;;6.35;3.67;;;22.50;99.50;;;;;;5068372;28;20406;-64
2023/09/15 12:16:31;;;;;;;7.45;3.70;;;22.30;99.40;;;;;;5048732;28;20049;-64
2023/09/15 12:18:59;;;;;;;9.98;4.00;;;22.20;99.90;;;;;;5045477;28;20049;-64
2023/09/15 12:21:26;;;;;;;5.30;3.33;;;22.30;99.90;;;;;;5061448;28;20131;-64
2023/09/15 12:24:07;;;;;;;7.55;3.38;;;22.40;99.80;;;;;;5051795;28;20053;-64
2023/09/15 12:26:33;;;;;;;5.85;3.38;;;22.60;99.80;;;;;;5028713;28;20087;-64
2023/09/15 12:28:59;;;;;;;6.97;3.92;;;22.80;99.90;;;;;;5021892;28;20068;-64
2023/09/15 12:31:26;;;;;;;6.55;4.20;;;22.80;99.20;;;;;;5035855;28;20055;-64
2023/09/15 12:33:52;;;;;;;6.05;3.70;;;22.90;98.50;;;;;;5039635;28;20483;-64
2023/09/15 12:36:19;;;;;;;5.88;3.92;;;22.80;98.50;;;;;;5022869;28;20509;-64
2023/09/15 12:38:45;;;;;;;7.82;3.90;;;22.80;98.60;;;;;;5019249;28;20079;-64
2023/09/15 12:41:11;;;;;;;6.50;3.67;;;22.80;98.80;;;;;;5037163;28;20124;-64
2023/09/15 12:43:37;;;;;;;6.15;3.90;;;22.80;99.20;;;;;;5037746;28;20056;-64